Tiempo atmosférico en la estación meteorológica de Taramundi, Ouria, Asturias (335 m.)



Fecha
DESCASC
Temp. máxima en grados centígrados (hora)
DESCASC
Temp. mínima en grados centígrados (hora)
DESCASC
Temp. media en grados centígrados
DESCASC
Racha de viento máxima en m/sg (hora)
DESCASC
Velocidad máxima media en intervalos de 10 minutos(hora)
DESCASC
Precipitaciones diarias en mm
DESCASC
Precipitaciones de 00:00 a 06:00 en mm
DESCASC
Precipitaciones de 06:00 a 12:00 en mm
DESCASC
Precipitaciones de 12:00 a 18:00 en mm
DESCASC
Precipitaciones de 18:00 a 24:00 en mm
DESCASC
19-09-2019 18.9 (16:00) 15.4 (23:59) 17.1 3.89 (16:30) 2.78 (01:10) 0 0 0 0 0
18-09-2019 19.8 (13:30) 15.6 (04:50) 17.7 6.11 (17:50) 4.72 (13:50) 0 0 0 0 0
17-09-2019 18.6 (13:00) 17.3 (00:00) 17.9 4.72 (15:00) 3.61 (14:50) 5 0 0.2 0 4.8
16-09-2019 20.3 (13:50) 16.7 (00:00) 18.5 8.61 (17:30) 6.11 (17:40) 0 0 0 0 0
15-09-2019 20.6 (15:30) 16.3 (00:00) 18.4 8.33 (16:40) 6.11 (16:40) 0 0 0 0 0
14-09-2019 20.8 (16:00) 15.3 (00:00) 18 8.89 (16:30) 7.22 (16:20) 0 0 0 0 0
13-09-2019 21.6 (15:10) 14.3 (00:00) 18 11.67 (16:40) 8.33 (15:50) 0 0 0 0 0
12-09-2019 20.9 (16:30) 10.3 (00:00) 15.6 7.5 (15:10) 5 (17:00) 0 0 0 0 0
11-09-2019 18 (15:40) 12.5 (00:00) 15.3 10 (19:00) 7.22 (18:40) 3 2.8 0 0.2 0
10-09-2019 15.1 (13:50) 10.6 (05:20) 12.9 11.67 (14:20) 8.61 (15:20) 4.6 3.8 0 0.4 0.4
09-09-2019 19.1 (16:10) 11 (02:30) 15.1 10 (20:10) 6.67 (20:10) 3 0 0 0 3
08-09-2019 20.1 (16:00) 10.6 (00:00) 15.4 11.39 (14:10) 7.78 (14:50) 0 0 0 0 0
07-09-2019 18.9 (13:20) 10.3 (00:00) 14.6 11.39 (15:10) 8.61 (16:00) 0 0 0 0 0
06-09-2019 18.9 (13:40) 12.3 (00:00) 15.6 17.22 (16:40) 11.11 (16:10) 0 0 0 0 0
05-09-2019 17.7 (16:10) 12.8 (00:00) 15.3 15.28 (19:40) 9.17 (17:30) 1.8 1 0.8 0 0
04-09-2019 19.4 (15:10) 12.3 (00:00) 15.8 11.94 (15:30) 8.61 (15:20) 1.4 0 0.2 0 1.2
03-09-2019 21.8 (16:20) 10.6 (00:00) 16.2 7.22 (16:20) 5 (16:50) 0 0 0 0 0
02-09-2019 20.2 (16:00) 13.3 (00:00) 16.8 12.78 (11:30) 9.17 (15:00) 0 0 0 0 0
01-09-2019 16.1 (00:00) 13.2 (00:00) 14.7 11.67 (20:20) 8.33 (12:50) 17 0 10.4 6.4 0.2
31-08-2019 22.8 (13:40) 16.1 (00:00) 19.4 8.61 (15:00) 6.67 (15:00) 1 0 0.4 0.2 0.4
30-08-2019 21.5 (15:20) 17.6 (00:00) 19.6 6.11 (15:10) 4.44 (16:30) 0.2 0 0.2 0 0
29-08-2019 18.2 (23:59) 15.8 (00:00) 17 6.94 (17:20) 5.28 (18:10) 1.4 0.6 0.8 0 0
28-08-2019 20.8 (14:50) 15.8 (00:00) 18.3 7.5 (15:50) 6.11 (15:50) 0.6 0 0 0 0.6
27-08-2019 19.7 (15:40) 15.9 (00:00) 17.8 5.83 (16:50) 4.44 (16:30) 2 2 0 0 0
26-08-2019 20.7 (13:00) 16.7 (00:00) 18.7 7.5 (15:40) 5.56 (15:40) 3.2 0.6 0.2 0 2.4
25-08-2019 18.7 (14:40) 15.1 (00:00) 16.9 8.33 (07:30) 5.28 (10:00) 1.2 0 0.8 0.4 0
24-08-2019 20.9 (12:30) 14 (00:00) 17.4 8.33 (17:10) 6.39 (17:00) 0 0 0 0 0
23-08-2019 32.9 (15:30) 15.2 (00:00) 24.1 8.33 (17:20) 6.11 (17:30) 0 0 0 0 0
22-08-2019 24.2 (16:50) 14.6 (00:00) 19.4 6.39 (16:50) 4.44 (16:40) 0 0 0 0 0
21-08-2019 20.8 (15:10) 12 (00:00) 16.4 10.56 (19:20) 7.22 (17:40) 0 0 0 0 0

Gráficas

Temp. máximas Temp. mínimas Temp. medias Precipitaciones Rachas de viento máximas Velocidades máximas media en intervalos de 10 minutos

Datos horarios

Fecha y hora oficial Temperatura (ºC) Velocidad del viento (km/h) Dirección del viento Racha (km/h) Dirección de racha Precipitación (mm) Presión (hPa) Tendencia (hPa) Humedad (%)
2019-09-19 23:00:00 15.6 6 Sur 10 Sur 0 -- -- 100
2019-09-19 22:00:00 15.9 8 Sur 11 Sur 0 -- -- 100
2019-09-19 21:00:00 16.3 7 Sur 11 Sur 0 -- -- 98
2019-09-19 20:00:00 17.2 4 Norte 9 Norte 0 -- -- 96
2019-09-19 19:00:00 18.3 5 Norte 9 Norte 0 -- -- 95
2019-09-19 18:00:00 18.6 8 Norte 12 Norte 0 -- -- 95
2019-09-19 17:00:00 18.7 9 Norte 14 Norte 0 -- -- 96
2019-09-19 16:00:00 18.9 9 Norte 14 Noroeste 0 -- -- 98
2019-09-19 15:00:00 18.7 5 Norte 11 Norte 0 -- -- 100
2019-09-19 14:00:00 18 3 Noroeste 8 Noroeste 0 -- -- 100
2019-09-19 13:00:00 17.2 3 Sur 8 Sur 0 -- -- 100
2019-09-19 12:00:00 16.9 3 Nordeste 10 Norte 0 -- -- 100
2019-09-19 11:00:00 16.4 6 Norte 9 Norte 0 -- -- 100
2019-09-19 10:00:00 16.2 4 Norte 6 Norte 0 -- -- 100
2019-09-19 09:00:00 15.9 3 Sur 8 Sur 0 -- -- 100
2019-09-19 08:00:00 15.9 4 Sur 4 Sur 0 -- -- 100
2019-09-19 07:00:00 15.8 3 Sur 5 Sur 0 -- -- 100
2019-09-19 06:00:00 15.9 4 Sur 5 Sur 0 -- -- 100
2019-09-19 05:00:00 15.9 3 Sur 5 Sur 0 -- -- 100
2019-09-19 04:00:00 16.1 4 Norte 11 Norte 0 -- -- 100
2019-09-19 03:00:00 16.1 7 Norte 12 Norte 0 -- -- 100
2019-09-19 02:00:00 16.2 9 Norte 13 Noroeste 0 -- -- 100
2019-09-19 01:00:00 16.2 8 Norte 12 Norte 0 -- -- 100
2019-09-19 00:00:00 16.4 2 Norte 7 Norte 0 -- -- 100
2019-09-18 23:00:00 16.4 5 Norte 7 Norte 0 -- -- 100
2019-09-18 22:00:00 16.6 4 Norte 10 Norte 0 -- -- 100
2019-09-18 21:00:00 17.1 5 Norte 17 Norte 0 -- -- 100
2019-09-18 20:00:00 17.4 13 Norte 20 Norte 0 -- -- 100
2019-09-18 19:00:00 17.6 16 Norte 22 Norte 0 -- -- 100
2019-09-18 18:00:00 17.8 15 Norte 22 Norte 0 -- -- 100
2019-09-18 17:00:00 18.3 13 Norte 19 Norte 0 -- -- 100
2019-09-18 16:00:00 18.2 10 Norte 13 Norte 0 -- -- 100
2019-09-18 15:00:00 17.9 10 Norte 16 Norte 0 -- -- 100
2019-09-18 14:00:00 18.6 15 Norte 20 Norte 0 -- -- 99
2019-09-18 13:00:00 18.8 7 Norte 11 Norte 0 -- -- 100
2019-09-18 12:00:00 18.4 4 Noroeste 13 Norte 0 -- -- 100
2019-09-18 11:00:00 17.5 6 Noroeste 11 Noroeste 0 -- -- 100
2019-09-18 10:00:00 16.4 0 Calma 4 Sur 0 -- -- 100
2019-09-18 09:00:00 16.1 0 Calma 5 Norte 0 -- -- 100
2019-09-18 08:00:00 15.9 0 Calma 5 Sur 0 -- -- 100
2019-09-18 07:00:00 15.9 3 Sur 9 Sur 0 -- -- 100
2019-09-18 06:00:00 16 3 Sur 9 Sudoeste 0 -- -- 100
2019-09-18 05:00:00 15.7 4 Sur 6 Sur 0 -- -- 100
2019-09-18 04:00:00 15.9 3 Sur 11 Sur 0 -- -- 100
2019-09-18 03:00:00 16.1 0 Calma 6 Sudoeste 0 -- -- 100
2019-09-18 02:00:00 16.9 4 Nordeste 14 Norte 0 -- -- 100
2019-09-18 01:00:00 17.2 9 Norte 18 Norte 0 -- -- 100
2019-09-18 00:00:00 17.6 4 Sur 13 Sur 0 -- -- 100
2019-09-17 23:00:00 17.7 9 Sur 13 Sur 0 -- -- 100
2019-09-17 22:00:00 17.7 0 Calma 14 Norte 0.8 -- -- 100
2019-09-17 21:00:00 18 4 Sur 13 Norte 0.6 -- -- 100
2019-09-15 18:00:00 -- -- -- -- -- -- -- -- --
2019-09-15 17:00:00 -- -- -- -- -- -- -- -- --
2019-09-15 16:00:00 -- -- -- -- -- -- -- -- --
2019-09-15 15:00:00 20.2 14 Norte 17 Norte 0 -- -- 94
2019-09-15 14:00:00 19 12 Norte 18 Norte 0 -- -- 97
2019-09-15 13:00:00 18.9 14 Norte 17 Norte 0 -- -- 99
2019-09-15 12:00:00 17.8 9 Norte 17 Norte 0 -- -- 100
2019-09-15 11:00:00 17.1 8 Norte 12 Norte 0 -- -- 100
2019-09-15 10:00:00 16.6 6 Norte 9 Norte 0 -- -- 100
2019-09-15 09:00:00 16.4 4 Norte 10 Norte 0 -- -- 100
2019-09-15 08:00:00 16.4 5 Norte 13 Norte 0 -- -- 100
2019-09-15 07:00:00 16.4 4 Norte 9 Nordeste 0 -- -- 100
2019-09-15 06:00:00 16.5 6 Norte 9 Norte 0 -- -- 100
2019-09-15 05:00:00 16.5 5 Norte 9 Norte 0 -- -- 100
2019-09-15 04:00:00 16.4 0 Calma 5 Este 0 -- -- 100
2019-09-15 03:00:00 16.4 4 Nordeste 6 Nordeste 0 -- -- 100
2019-09-15 02:00:00 16.7 0 Calma 6 Norte 0 -- -- 100
2019-09-15 01:00:00 16.9 4 Norte 13 Norte 0 -- -- 100
2019-09-15 00:00:00 16.9 8 Norte 17 Norte 0 -- -- 100
2019-09-14 23:00:00 17 10 Norte 15 Norte 0 -- -- 100
2019-09-14 22:00:00 17.2 14 Norte 17 Norte 0 -- -- 100
2019-09-14 21:00:00 17.4 13 Norte 21 Norte 0 -- -- 100
2019-09-14 20:00:00 17.6 16 Norte 26 Norte 0 -- -- 100
2019-09-14 19:00:00 17.6 19 Norte 28 Norte 0 -- -- 100
2019-09-14 18:00:00 17.8 19 Norte 30 Norte 0 -- -- 98
2019-09-14 17:00:00 19.9 22 Norte 32 Norte 0 -- -- 90
2019-09-14 16:00:00 20.8 17 Norte 31 Norte 0 -- -- 88
2019-09-14 15:00:00 20.4 22 Norte 28 Norte 0 -- -- 89
2019-09-14 14:00:00 20.7 21 Norte 27 Norte 0 -- -- 90
2019-09-14 13:00:00 20 13 Norte 17 Norte 0 -- -- 90
2019-09-14 12:00:00 18.1 4 Norte 16 Oeste 0 -- -- 97
2019-09-14 11:00:00 17 10 Norte 14 Norte 0 -- -- 100
2019-09-14 10:00:00 16.1 7 Norte 11 Norte 0 -- -- 100
2019-09-14 09:00:00 15.6 2 Sur 6 Sur 0 -- -- 100
2019-09-14 08:00:00 15.5 3 Sur 8 Sur 0 -- -- 100
2019-09-14 07:00:00 15.6 5 Sur 7 Sur 0 -- -- 100
2019-09-14 06:00:00 -- -- -- -- -- -- -- -- --
2019-09-14 05:00:00 -- -- -- -- -- -- -- -- --
2019-09-14 04:00:00 -- -- -- -- -- -- -- -- --
2019-09-14 03:00:00 15.8 0 Calma 6 Sur 0 -- -- 100
2019-09-14 02:00:00 15.9 4 Sur 8 Norte 0 -- -- 100
2019-09-14 01:00:00 15.8 6 Norte 10 Norte 0 -- -- 100
2019-09-14 00:00:00 16.3 9 Norte 12 Norte 0 -- -- 100
2019-09-13 23:00:00 16.4 12 Norte 20 Norte 0 -- -- 100
2019-09-13 22:00:00 16.5 17 Norte 25 Norte 0 -- -- 100
2019-09-13 21:00:00 16.8 16 Norte 25 Norte 0 -- -- 98
2019-09-13 20:00:00 17.9 21 Norte 31 Norte 0 -- -- 94
2019-09-13 19:00:00 18.4 22 Norte 41 Norte 0 -- -- 93
2019-09-13 18:00:00 18.3 22 Norte 37 Norte 0 -- -- 94
2019-09-13 17:00:00 19.7 23 Norte 42 Norte 0 -- -- 89
2019-09-13 16:00:00 21.2 27 Norte 37 Norte 0 -- -- 84
2019-09-13 15:00:00 21.5 22 Norte 31 Norte 0 -- -- 83
2019-09-13 14:00:00 19.6 13 Norte 20 Norte 0 -- -- 88
2019-09-13 13:00:00 18.2 10 Norte 13 Norte 0 -- -- 95
2019-09-13 12:00:00 16.6 4 Sur 12 Norte 0 -- -- 100
2019-09-13 11:00:00 15.6 8 Norte 10 Norte 0 -- -- 100
2019-09-13 10:00:00 14.7 5 Sur 9 Sur 0 -- -- 100
2019-09-13 09:00:00 14.6 4 Norte 5 Norte 0 -- -- 100
2019-09-13 08:00:00 14.4 0 Calma 5 Sur 0 -- -- 100
2019-09-13 07:00:00 14.5 3 Sur 4 Sur 0 -- -- 100
2019-09-13 06:00:00 14.5 3 Sur 5 Norte 0 -- -- 100
2019-09-13 05:00:00 14.6 2 Sur 6 Sur 0 -- -- 100
2019-09-13 04:00:00 14.5 3 Nordeste 7 Norte 0 -- -- 100
2019-09-13 03:00:00 14.5 4 Norte 12 Norte 0 -- -- 100
2019-09-13 02:00:00 14.7 10 Norte 15 Norte 0 -- -- 100
2019-09-13 01:00:00 14.9 9 Norte 11 Norte 0 -- -- 100
2019-09-13 00:00:00 15.2 5 Norte 7 Norte 0 -- -- 100
2019-09-12 23:00:00 15.3 5 Norte 7 Norte 0 -- -- 100
2019-09-12 22:00:00 15.6 4 Norte 6 Norte 0 -- -- 99
2019-09-12 21:00:00 15.8 3 Sur 8 Norte 0 -- -- 97
2019-09-12 20:00:00 16.6 10 Norte 17 Norte 0 -- -- 95
2019-09-12 19:00:00 18.8 14 Norte 18 Norte 0 -- -- 87
2019-09-12 18:00:00 20.3 12 Norte 21 Norte 0 -- -- 82
2019-09-12 17:00:00 20.5 18 Norte 26 Norte 0 -- -- 79
2019-09-12 16:00:00 20.8 17 Norte 27 Norte 0 -- -- 78
2019-09-12 15:00:00 19.4 17 Norte 22 Nordeste 0 -- -- 82
2019-09-12 14:00:00 18.7 17 Norte 21 Norte 0 -- -- 85
2019-09-12 13:00:00 18.1 13 Norte 19 Norte 0 -- -- 86
2019-09-12 12:00:00 16.8 9 Norte 14 Norte 0 -- -- 92
2019-09-12 11:00:00 14.1 9 Sur 16 Sur 0 -- -- 100
2019-09-12 10:00:00 11.3 12 Sur 17 Sur 0 -- -- 100
2019-09-12 09:00:00 10.6 7 Sur 9 Sur 0 -- -- 100
2019-09-12 08:00:00 10.7 5 Sur 9 Sudoeste 0 -- -- 100
2019-09-12 07:00:00 10.4 5 Sur 10 Sudoeste 0 -- -- 100
2019-09-12 06:00:00 11.2 9 Sur 16 Sur 0 -- -- 100
2019-09-12 05:00:00 11.5 12 Sur 16 Sur 0 -- -- 100
2019-09-12 04:00:00 11.6 3 Sur 5 Sudeste 0 -- -- 100
2019-09-12 03:00:00 11.2 0 Calma 6 Norte 0 -- -- 100
2019-09-12 02:00:00 11.3 0 Calma 7 Norte 0 -- -- 100
2019-09-12 01:00:00 11.8 5 Norte 6 Norte 0 -- -- 100
2019-09-12 00:00:00 12.5 3 Norte 13 Norte 0 -- -- 99
2019-09-11 23:00:00 13.3 12 Norte 24 Norte 0 -- -- 97
2019-09-11 22:00:00 13.4 18 Norte 30 Norte 0 -- -- 97
2019-09-11 21:00:00 14.2 19 Norte 34 Norte 0 -- -- 94
2019-09-11 20:00:00 15.2 21 Norte 33 Norte 0 -- -- 92
2019-09-11 19:00:00 15.4 25 Norte 36 Norte 0 -- -- 90
2019-09-11 18:00:00 16.1 24 Norte 34 Norte 0 -- -- 88
2019-09-11 17:00:00 17.3 23 Norte 32 Norte 0.2 -- -- 84
2019-09-11 16:00:00 17.3 21 Norte 32 Noroeste 0 -- -- 84
2019-09-11 15:00:00 16.8 18 Norte 31 Norte 0 -- -- 89
2019-09-11 14:00:00 16.3 21 Norte 29 Norte 0 -- -- 90
2019-09-11 13:00:00 15.6 17 Norte 26 Norte 0 -- -- 91
2019-09-11 12:00:00 15.3 19 Norte 27 Norte 0 -- -- 95
2019-09-11 11:00:00 14.7 18 Norte 26 Norte 0 -- -- 98
2019-09-11 10:00:00 13.8 9 Norte 13 Norte 0 -- -- 100
2019-09-11 09:00:00 13.1 8 Norte 15 Norte 0 -- -- 100
2019-09-11 08:00:00 12.9 10 Norte 18 Norte 0 -- -- 100
2019-09-11 07:00:00 12.9 12 Norte 19 Norte 0 -- -- 100
2019-09-11 06:00:00 13 8 Norte 12 Noroeste 0 -- -- 100
2019-09-11 05:00:00 13 7 Norte 12 Noroeste 0 -- -- 100
2019-09-11 04:00:00 13.1 7 Norte 9 Noroeste 0.2 -- -- 100
2019-09-11 03:00:00 13.1 6 Norte 13 Norte 0.4 -- -- 100
2019-09-11 02:00:00 13 6 Norte 10 Norte 1.6 -- -- 100
2019-09-11 01:00:00 13 9 Norte 13 Norte 0.6 -- -- 100
2019-09-11 00:00:00 13 12 Norte 20 Norte 0.4 -- -- 98
2019-09-10 23:00:00 13 9 Norte 17 Norte 0 -- -- 96
2019-09-10 22:00:00 13.2 11 Norte 24 Norte 0 -- -- 91
2019-09-10 21:00:00 13.7 15 Norte 24 Norte 0 -- -- 89
2019-09-10 20:00:00 14.1 18 Norte 31 Norte 0 -- -- 85
2019-09-10 19:00:00 14.3 22 Norte 37 Norte 0 -- -- 83
2019-09-10 18:00:00 14.7 26 Norte 38 Norte 0 -- -- 83
2019-09-10 17:00:00 13.6 16 Norte 38 Nordeste 0.2 -- -- 96
2019-09-10 16:00:00 14.7 28 Norte 41 Norte 0 -- -- 86
2019-09-10 15:00:00 14.8 28 Norte 42 Norte 0 -- -- 85
2019-09-10 14:00:00 14.9 26 Norte 39 Norte 0 -- -- 83
2019-09-10 13:00:00 14 19 Norte 36 Norte 0.2 -- -- 91
2019-09-10 12:00:00 14.4 23 Norte 36 Norte 0 -- -- 85
2019-09-10 11:00:00 13.6 12 Norte 22 Nordeste 0 -- -- 88
2019-09-10 10:00:00 12.6 4 Norte 14 Norte 0 -- -- 97
2019-09-10 09:00:00 11.5 0 Calma 9 Norte 0 -- -- 98
2019-09-10 08:00:00 11.2 5 Norte 13 Norte 0 -- -- 100
2019-09-10 07:00:00 11.1 2 Noroeste 11 Norte 0 -- -- 100
2019-09-10 06:00:00 11.3 9 Norte 17 Noroeste 1.6 -- -- 100
2019-09-10 05:00:00 10.8 2 Sur 8 Sur 0 -- -- 100
2019-09-10 04:00:00 11.4 5 Norte 26 Norte 1.6 -- -- 100
2019-09-10 03:00:00 11.4 2 Sur 16 Norte 0.6 -- -- 99
2019-09-10 02:00:00 11.5 2 Sur 4 Norte 0 -- -- 100
2019-09-10 01:00:00 11.9 2 Norte 12 Noroeste 0 -- -- 99
2019-09-10 00:00:00 11.9 8 Norte 17 Norte 0.4 -- -- 100
2019-09-09 23:00:00 12 0 Calma 6 Norte 0 -- -- 99
2019-09-09 22:00:00 12.6 5 Nordeste 14 Nordeste 0 -- -- 99
2019-09-09 21:00:00 12.4 5 Nordeste 36 Norte 2 -- -- 100
2019-09-09 20:00:00 13.9 19 Norte 35 Norte 0.6 -- -- 96
2019-09-09 19:00:00 17.9 13 Norte 19 Norte 0 -- -- 78
2019-09-09 18:00:00 18.6 10 Norte 22 Norte 0 -- -- 76
2019-09-09 17:00:00 18.9 14 Norte 20 Norte 0 -- -- 76
2019-09-09 16:00:00 18.7 6 Norte 15 Norte 0 -- -- 76
2019-09-09 15:00:00 17.8 8 Norte 14 Norte 0 -- -- 79
2019-09-09 14:00:00 16.1 8 Norte 18 Norte 0 -- -- 87
2019-09-09 13:00:00 16.7 6 Nordeste 13 Norte 0 -- -- 85
2019-09-09 12:00:00 15.7 4 Norte 14 Norte 0 -- -- 92
2019-09-09 11:00:00 14.7 6 Norte 9 Norte 0 -- -- 100
2019-09-09 10:00:00 13 2 Sur 7 Norte 0 -- -- 100
2019-09-09 09:00:00 12.4 5 Norte 7 Sur 0 -- -- 100
2019-09-09 08:00:00 11.9 0 Calma 5 Sur 0 -- -- 100
2019-09-09 07:00:00 11.5 4 Sur 5 Sur 0 -- -- 100
2019-09-09 06:00:00 11.7 2 Sur 4 Sur 0 -- -- 100
2019-09-09 05:00:00 11.7 4 Sur 7 Sur 0 -- -- 100
2019-09-09 04:00:00 11.2 6 Sur 8 Sur 0 -- -- 100
2019-09-09 03:00:00 11.2 4 Sur 7 Sur 0 -- -- 100
2019-09-09 02:00:00 11.3 3 Sur 5 Sur 0 -- -- 100
2019-09-09 01:00:00 11.8 3 Sur 4 Sur 0 -- -- 100
2019-09-09 00:00:00 11.9 0 Calma 4 Sur 0 -- -- 98
2019-09-08 23:00:00 12.6 0 Calma 8 Noroeste 0 -- -- 96
2019-09-08 22:00:00 13 8 Norte 13 Norte 0 -- -- 96
2019-09-08 21:00:00 13.7 10 Norte 18 Norte 0 -- -- 88
2019-09-08 20:00:00 15.4 13 Norte 27 Norte 0 -- -- 82
2019-09-08 19:00:00 17.9 21 Norte 31 Norte 0 -- -- 74
2019-09-08 18:00:00 18.8 22 Norte 33 Norte 0 -- -- 72
2019-09-08 17:00:00 19.5 23 Norte 39 Norte 0 -- -- 71
2019-09-08 16:00:00 20.1 23 Norte 36 Norte 0 -- -- 73
2019-09-08 15:00:00 19 25 Norte 41 Norte 0 -- -- 79
2019-09-08 14:00:00 17.9 27 Norte 37 Noroeste 0 -- -- 84
2019-09-08 13:00:00 16.9 21 Norte 33 Norte 0 -- -- 88
2019-09-08 12:00:00 16.3 20 Norte 33 Norte 0 -- -- 93
2019-09-08 11:00:00 15 23 Norte 33 Norte 0 -- -- 100
2019-09-08 10:00:00 14 15 Norte 22 Norte 0 -- -- 100
2019-09-08 09:00:00 13 14 Norte 17 Norte 0 -- -- 100
2019-09-08 08:00:00 12.4 11 Norte 15 Norte 0 -- -- 100
2019-09-08 07:00:00 11.5 10 Norte 17 Norte 0 -- -- 100
2019-09-08 06:00:00 11.5 10 Norte 13 Norte 0 -- -- 100
2019-09-08 05:00:00 10.7 5 Norte 7 Norte 0 -- -- 100
2019-09-08 04:00:00 11.8 5 Norte 8 Norte 0 -- -- 100
2019-09-08 03:00:00 11.3 5 Norte 10 Norte 0 -- -- 100
2019-09-08 02:00:00 11.9 6 Norte 9 Norte 0 -- -- 100
2019-09-08 01:00:00 12.4 6 Norte 22 Noroeste 0 -- -- 97
2019-09-08 00:00:00 13.4 17 Norte 26 Norte 0 -- -- 97
2019-09-07 23:00:00 13.7 17 Norte 22 Norte 0 -- -- 97
2019-09-07 22:00:00 13 13 Norte 18 Norte 0 -- -- 98
2019-09-07 21:00:00 13.9 16 Norte 24 Norte 0 -- -- 94
2019-09-07 20:00:00 14.7 18 Norte 32 Norte 0 -- -- 91
2019-09-07 19:00:00 16.1 26 Norte 37 Norte 0 -- -- 85
2019-09-07 18:00:00 17.1 27 Norte 38 Norte 0 -- -- 80
2019-09-07 17:00:00 17.9 28 Norte 40 Norte 0 -- -- 77
2019-09-07 16:00:00 18 31 Norte 41 Norte 0 -- -- 75
2019-09-07 15:00:00 18.3 28 Norte 39 Norte 0 -- -- 74
2019-09-07 14:00:00 18.5 27 Norte 33 Norte 0 -- -- 71
2019-09-07 13:00:00 18.4 20 Norte 28 Norte 0 -- -- 70
2019-09-07 12:00:00 17.1 19 Norte 30 Norte 0 -- -- 74
2019-09-07 11:00:00 15.8 19 Norte 25 Norte 0 -- -- 81
2019-09-07 10:00:00 14.1 15 Norte 26 Norte 0 -- -- 91
2019-09-07 09:00:00 12.3 14 Norte 23 Norte 0 -- -- 97
2019-09-07 08:00:00 11.7 13 Norte 28 Norte 0 -- -- 100
2019-09-07 07:00:00 10.3 5 Norte 7 Norte 0 -- -- 100
2019-09-07 06:00:00 10.5 3 Norte 14 Noroeste 0 -- -- 99
2019-09-07 05:00:00 10.5 7 Norte 15 Norte 0 -- -- 100
2019-09-07 04:00:00 11.6 9 Norte 21 Noroeste 0 -- -- 93
2019-09-07 03:00:00 12.2 13 Noroeste 18 Noroeste 0 -- -- 95
2019-09-07 02:00:00 12.3 15 Norte 27 Norte 0 -- -- 94
2019-09-07 01:00:00 12.4 14 Norte 26 Norte 0 -- -- 92
2019-09-07 00:00:00 13.3 19 Norte 30 Norte 0 -- -- 88
2019-09-06 23:00:00 13.4 18 Norte 26 Norte 0 -- -- 89
2019-09-06 22:00:00 14.1 17 Norte 40 Norte 0 -- -- 87
2019-09-06 21:00:00 14.7 24 Norte 47 Norte 0 -- -- 85
2019-09-06 20:00:00 15.7 30 Norte 47 Norte 0 -- -- 82
2019-09-06 19:00:00 17 29 Norte 48 Noroeste 0 -- -- 79
2019-09-06 18:00:00 17.6 31 Norte 53 Norte 0 -- -- 77
2019-09-06 17:00:00 18 31 Norte 62 Norte 0 -- -- 75
2019-09-06 16:00:00 17.9 37 Norte 61 Norte 0 -- -- 76
2019-09-06 15:00:00 18.5 39 Norte 56 Norte 0 -- -- 72
2019-09-06 14:00:00 18.6 31 Norte 44 Norte 0 -- -- 69
2019-09-06 13:00:00 18.4 25 Norte 44 Norte 0 -- -- 67
2019-09-06 12:00:00 17 25 Norte 48 Norte 0 -- -- 73
2019-09-06 11:00:00 15.3 24 Norte 40 Norte 0 -- -- 79
2019-09-06 10:00:00 14.8 27 Norte 40 Norte 0 -- -- 85
2019-09-06 09:00:00 13.3 19 Norte 30 Norte 0 -- -- 92
2019-09-06 08:00:00 12.4 15 Norte 27 Norte 0 -- -- 90
2019-09-06 07:00:00 12.8 20 Norte 31 Norte 0 -- -- 87
2019-09-06 06:00:00 12.6 16 Norte 28 Noroeste 0 -- -- 90
2019-09-06 05:00:00 13.4 21 Norte 33 Norte 0 -- -- 87
2019-09-06 04:00:00 13.5 25 Norte 39 Norte 0 -- -- 88
2019-09-06 03:00:00 13.7 24 Norte 36 Norte 0 -- -- 87
2019-09-06 02:00:00 13.5 21 Norte 36 Noroeste 0 -- -- 87
2019-09-06 01:00:00 13.7 24 Norte 37 Norte 0 -- -- 88
2019-09-06 00:00:00 13.8 24 Norte 39 Norte 0 -- -- 87
2019-09-05 23:00:00 14.1 25 Norte 37 Norte 0 -- -- 88
2019-09-05 22:00:00 14.3 24 Norte 40 Norte 0 -- -- 87
2019-09-05 21:00:00 14.4 21 Norte 44 Norte 0 -- -- 84
2019-09-05 20:00:00 15.1 26 Norte 55 Norte 0 -- -- 82
2019-09-05 19:00:00 15.6 26 Norte 45 Norte 0 -- -- 83
2019-09-05 18:00:00 16.1 28 Norte 51 Norte 0 -- -- 82
2019-09-05 17:00:00 17.2 28 Norte 45 Norte 0 -- -- 81
2019-09-05 16:00:00 17.6 25 Norte 42 Norte 0 -- -- 78
2019-09-05 15:00:00 16.1 26 Norte 43 Norte 0 -- -- 83
2019-09-05 14:00:00 15.5 23 Norte 35 Norte 0 -- -- 92
2019-09-05 13:00:00 14.9 20 Norte 38 Norte 0 -- -- 91
2019-09-05 12:00:00 14.3 17 Norte 27 Norte 0.8 -- -- 98
2019-09-05 11:00:00 13.9 18 Norte 31 Norte 0 -- -- 96
2019-09-05 10:00:00 14.6 17 Norte 24 Norte 0 -- -- 91
2019-09-05 09:00:00 13.5 13 Norte 24 Noroeste 0 -- -- 95
2019-09-05 08:00:00 13.3 14 Norte 25 Norte 0 -- -- 97
2019-09-05 07:00:00 13 14 Norte 25 Norte 0 -- -- 97
2019-09-05 06:00:00 13.2 13 Norte 23 Norte 0 -- -- 99
2019-09-05 05:00:00 13 14 Norte 27 Norte 0 -- -- 100
2019-09-05 04:00:00 12.8 16 Norte 27 Norte 0.2 -- -- 100
2019-09-05 03:00:00 13 17 Norte 29 Norte 0 -- -- 100
2019-09-05 02:00:00 13.1 19 Norte 31 Norte 0.2 -- -- 100
2019-09-05 01:00:00 13.5 21 Norte 37 Norte 0.6 -- -- 100
2019-09-05 00:00:00 14 24 Norte 37 Norte 0.4 -- -- 100
2019-09-04 23:00:00 14.3 21 Norte 34 Norte 0.4 -- -- 100
2019-09-04 22:00:00 14.7 20 Norte 31 Norte 0.4 -- -- 100
2019-09-04 21:00:00 15.8 20 Norte 31 Norte 0 -- -- 95
2019-09-04 20:00:00 16.3 22 Norte 35 Norte 0 -- -- 93
2019-09-04 19:00:00 17.4 24 Norte 40 Noroeste 0 -- -- 90
2019-09-04 18:00:00 18.1 27 Norte 37 Norte 0 -- -- 88
2019-09-04 17:00:00 18.5 26 Norte 37 Norte 0 -- -- 83
2019-09-04 16:00:00 18.8 29 Norte 43 Norte 0 -- -- 83
2019-09-04 15:00:00 19.3 28 Norte 36 Norte 0 -- -- 85
2019-09-04 14:00:00 18.2 24 Norte 35 Norte 0 -- -- 87
2019-09-04 13:00:00 18 23 Norte 31 Norte 0 -- -- 90
2019-09-04 12:00:00 17.2 22 Norte 27 Norte 0 -- -- 94
2019-09-04 11:00:00 16.5 18 Norte 21 Norte 0 -- -- 100
2019-09-04 10:00:00 14.6 15 Norte 19 Norte 0 -- -- 100
2019-09-04 09:00:00 13.2 6 Norte 9 Norte 0 -- -- 100
2019-09-04 08:00:00 12.3 6 Norte 8 Norte 0.2 -- -- 100
2019-09-04 07:00:00 12.5 4 Norte 8 Norte 0 -- -- 100
2019-09-04 06:00:00 12.8 0 Calma 3 Sur 0 -- -- 100
2019-09-04 05:00:00 12.6 0 Calma 3 Sur 0 -- -- 100
2019-09-04 04:00:00 12.8 3 Sur 4 Sur 0 -- -- 100
2019-09-04 03:00:00 12.9 3 Sur 6 Sur 0 -- -- 100
2019-09-04 02:00:00 13 4 Sur 8 Sur 0 -- -- 100
2019-09-04 01:00:00 13.2 5 Sur 8 Sur 0 -- -- 100
2019-09-04 00:00:00 13.6 4 Sur 9 Sur 0 -- -- 99
2019-09-03 23:00:00 14.2 5 Sur 8 Sur 0 -- -- 97
2019-09-03 22:00:00 15.1 5 Sur 10 Sur 0 -- -- 95
2019-09-03 21:00:00 16.6 7 Sur 10 Sur 0 -- -- 90
2019-09-03 20:00:00 17.8 5 Norte 18 Norte 0 -- -- 86
2019-09-03 19:00:00 20.4 13 Norte 20 Norte 0 -- -- 78
2019-09-03 18:00:00 21.2 14 Norte 23 Norte 0 -- -- 75
2019-09-03 17:00:00 21.7 17 Norte 26 Norte 0 -- -- 75
2019-09-03 16:00:00 21.4 14 Norte 21 Norte 0 -- -- 74
2019-09-03 15:00:00 20.9 12 Norte 22 Norte 0 -- -- 73
2019-09-03 14:00:00 19.9 13 Norte 22 Norte 0 -- -- 77
2019-09-03 13:00:00 18.6 10 Norte 16 Norte 0 -- -- 83
2019-09-03 12:00:00 17.1 6 Norte 9 Norte 0 -- -- 88
2019-09-03 11:00:00 16 3 Sur 8 Sur 0 -- -- 93
2019-09-03 10:00:00 13.4 6 Sur 9 Sur 0 -- -- 100
2019-09-03 09:00:00 11.2 6 Sur 8 Sur 0 -- -- 100
2019-09-03 08:00:00 10.8 6 Sur 8 Sur 0 -- -- 100
2019-09-03 07:00:00 10.8 6 Sur 10 Sur 0 -- -- 100
2019-09-03 06:00:00 11.1 5 Sur 9 Sur 0 -- -- 100
2019-09-03 05:00:00 11.2 6 Sur 10 Sur 0 -- -- 100
2019-09-03 04:00:00 11.8 6 Sur 8 Sur 0 -- -- 100
2019-09-03 03:00:00 12.1 3 Sur 4 Sur 0 -- -- 100
2019-09-03 02:00:00 12.4 2 Sur 4 Sur 0 -- -- 100
2019-09-03 01:00:00 12.8 3 Norte 8 Norte 0 -- -- 99
2019-09-03 00:00:00 13.3 4 Norte 8 Norte 0 -- -- 97
2019-09-02 23:00:00 13.9 6 Norte 15 Norte 0 -- -- 96
2019-09-02 22:00:00 15.1 12 Norte 33 Norte 0 -- -- 93
2019-09-02 21:00:00 15.8 20 Norte 37 Norte 0 -- -- 90
2019-09-02 20:00:00 16.9 28 Norte 45 Norte 0 -- -- 85
2019-09-02 19:00:00 18.6 30 Norte 45 Norte 0 -- -- 77
2019-09-02 18:00:00 19.3 31 Norte 46 Norte 0 -- -- 75
2019-09-02 17:00:00 19.6 30 Norte 42 Norte 0 -- -- 74
2019-09-02 16:00:00 20.2 29 Norte 45 Norte 0 -- -- 69
2019-09-02 15:00:00 19.5 33 Norte 44 Norte 0 -- -- 70
2019-09-02 14:00:00 19.5 30 Norte 45 Norte 0 -- -- 75
2019-09-02 13:00:00 18.6 27 Norte 46 Norte 0 -- -- 70
2019-09-02 12:00:00 17.3 22 Norte 46 Norte 0 -- -- 78
2019-09-02 11:00:00 16.1 27 Norte 42 Norte 0 -- -- 84
2019-09-02 10:00:00 14.6 29 Norte 43 Norte 0 -- -- 89
2019-09-02 09:00:00 13.9 25 Norte 39 Norte 0 -- -- 89
2019-09-02 08:00:00 14.3 24 Norte 36 Norte 0 -- -- 88
2019-09-02 07:00:00 14.3 26 Norte 38 Norte 0 -- -- 90
2019-09-02 06:00:00 14.2 25 Norte 39 Norte 0 -- -- 92
2019-09-02 05:00:00 14.1 24 Norte 36 Norte 0 -- -- 93
2019-09-02 04:00:00 14.3 23 Norte 39 Norte 0 -- -- 92
2019-09-02 03:00:00 14 23 Norte 35 Norte 0 -- -- 96
2019-09-02 02:00:00 13.9 25 Norte 41 Norte 0 -- -- 98
2019-09-02 01:00:00 13.7 25 Norte 40 Norte 0 -- -- 100
2019-09-02 00:00:00 13.6 23 Norte 39 Norte 0 -- -- 100
2019-09-01 23:00:00 13.7 22 Norte 40 Norte 0.2 -- -- 100
2019-09-01 22:00:00 13.5 27 Norte 37 Norte 0 -- -- 100
2019-09-01 21:00:00 13.6 24 Norte 42 Norte 0 -- -- 100
2019-09-01 20:00:00 14.1 24 Norte 34 Norte 0 -- -- 100
2019-09-01 19:00:00 14.5 18 Norte 33 Norte 0 -- -- 100
2019-09-01 18:00:00 14.4 23 Norte 31 Norte 0 -- -- 100
2019-09-01 17:00:00 14.1 23 Norte 37 Norte 0 -- -- 100
2019-09-01 16:00:00 14.3 22 Norte 36 Norte 0.2 -- -- 100
2019-09-01 15:00:00 13.7 26 Norte 35 Norte 1.6 -- -- 100
2019-09-01 14:00:00 13.3 30 Norte 39 Norte 2.2 -- -- 100
2019-09-01 13:00:00 14 26 Norte 39 Norte 2.4 -- -- 100
2019-09-01 12:00:00 14.6 16 Norte 25 Norte 1 -- -- 100
2019-09-01 11:00:00 14.1 17 Norte 36 Norte 1.8 -- -- 100
2019-09-01 10:00:00 14 18 Norte 31 Norte 3.4 -- -- 100
2019-09-01 09:00:00 14 19 Norte 35 Norte 2.2 -- -- 100
2019-09-01 08:00:00 14.7 21 Norte 28 Norte 2 -- -- 100
2019-09-01 07:00:00 14.9 2 Nordeste 6 Norte 0 -- -- 100
2019-09-01 06:00:00 14.9 2 Sudeste 10 Norte 0 -- -- 100
2019-09-01 05:00:00 15 5 Norte 7 Norte 0 -- -- 100
2019-09-01 04:00:00 15.5 3 Sur 6 Sur 0 -- -- 100
2019-09-01 03:00:00 15.6 4 Norte 10 Norte 0 -- -- 100
2019-09-01 02:00:00 15.8 8 Norte 10 Noroeste 0 -- -- 100
2019-09-01 01:00:00 15.7 6 Norte 8 Norte 0 -- -- 100
2019-09-01 00:00:00 16.1 4 Norte 9 Norte 0 -- -- 100
2019-08-31 23:00:00 16.2 8 Norte 15 Norte 0 -- -- 100
2019-08-31 22:00:00 16.3 11 Norte 15 Norte 0.2 -- -- 100
2019-08-31 21:00:00 16.3 13 Norte 19 Norte 0.2 -- -- 100
2019-08-31 20:00:00 16.7 12 Norte 17 Nordeste 0 -- -- 100
2019-08-31 19:00:00 16.9 13 Norte 18 Norte 0 -- -- 100
2019-08-31 18:00:00 17.1 11 Norte 26 Norte 0 -- -- 100
2019-08-31 17:00:00 17.2 21 Norte 31 Norte 0.2 -- -- 100
2019-08-31 16:00:00 19 14 Norte 29 Norte 0 -- -- 96
2019-08-31 15:00:00 20.5 24 Norte 31 Norte 0 -- -- 90
2019-08-31 14:00:00 21.4 22 Norte 27 Norte 0 -- -- 86
2019-08-31 13:00:00 21.2 10 Sur 21 Sur 0 -- -- 82
2019-08-31 12:00:00 20 5 Sudeste 15 Sur 0 -- -- 91
2019-08-31 11:00:00 18.8 10 Sur 17 Sur 0 -- -- 100
2019-08-31 10:00:00 17.5 12 Sur 17 Sur 0 -- -- 100
2019-08-31 09:00:00 17.1 6 Sur 10 Sur 0 -- -- 100
2019-08-31 08:00:00 17.2 6 Sur 9 Sur 0.2 -- -- 100
2019-08-31 07:00:00 17.3 0 Calma 10 Noroeste 0.2 -- -- 100
2019-08-31 06:00:00 17.4 2 Noroeste 10 Noroeste 0 -- -- 100
2019-08-31 05:00:00 17.7 6 Sur 9 Sur 0 -- -- 100
2019-08-31 04:00:00 17.9 3 Sur 9 Sur 0 -- -- 100
2019-08-31 03:00:00 18.2 4 Sur 7 Sudoeste 0 -- -- 100
2019-08-31 02:00:00 18.3 2 Sur 5 Sur 0 -- -- 100
2019-08-31 01:00:00 18.4 3 Sur 5 Sur 0 -- -- 100
2019-08-31 00:00:00 18.5 2 Sur 5 Sur 0 -- -- 100
2019-08-30 23:00:00 18.6 4 Sur 5 Sur 0 -- -- 100
2019-08-30 22:00:00 18.8 2 Noroeste 7 Norte 0 -- -- 100
2019-08-30 21:00:00 19.2 7 Norte 9 Norte 0 -- -- 99
2019-08-30 20:00:00 19.9 8 Norte 15 Norte 0 -- -- 97
2019-08-30 19:00:00 20.8 12 Norte 16 Norte 0 -- -- 94
2019-08-30 18:00:00 21.2 11 Norte 15 Norte 0 -- -- 93
2019-08-30 17:00:00 21.1 12 Norte 19 Norte 0 -- -- 92
2019-08-30 16:00:00 21.3 13 Norte 22 Norte 0 -- -- 94
2019-08-30 15:00:00 21.2 12 Norte 16 Norte 0 -- -- 98
2019-08-30 14:00:00 20.3 9 Norte 12 Norte 0 -- -- 100
2019-08-30 13:00:00 19.2 6 Nordeste 12 Norte 0 -- -- 100
2019-08-30 12:00:00 19.1 2 Sur 8 Sur 0 -- -- 100
2019-08-30 11:00:00 18.1 3 Sur 7 Norte 0 -- -- 100
2019-08-30 10:00:00 17.8 6 Norte 8 Norte 0 -- -- 100
2019-08-30 09:00:00 17.7 6 Norte 8 Norte 0 -- -- 100
2019-08-30 08:00:00 17.7 0 Calma 4 Sudeste 0 -- -- 100
2019-08-30 07:00:00 17.7 2 Sur 3 Sur 0.2 -- -- 100
2019-08-30 06:00:00 17.8 3 Nordeste 5 Nordeste 0 -- -- 100
2019-08-30 05:00:00 18 0 Calma 5 Norte 0 -- -- 100
2019-08-30 04:00:00 18.1 4 Norte 6 Norte 0 -- -- 100
2019-08-30 03:00:00 18 4 Norte 9 Norte 0 -- -- 100
2019-08-30 02:00:00 18 6 Norte 9 Norte 0 -- -- 100
2019-08-30 01:00:00 18.2 7 Norte 12 Norte 0 -- -- 100
2019-08-30 00:00:00 18.2 7 Norte 12 Norte 0 -- -- 100
2019-08-29 23:00:00 18 10 Norte 14 Noroeste 0 -- -- 100
2019-08-29 22:00:00 18 7 Norte 12 Nordeste 0 -- -- 100
2019-08-29 21:00:00 17.9 8 Norte 18 Norte 0 -- -- 100
2019-08-29 20:00:00 17.8 14 Norte 20 Noroeste 0 -- -- 100
2019-08-29 19:00:00 17.5 14 Norte 23 Norte 0 -- -- 100
2019-08-29 18:00:00 17.7 18 Norte 25 Norte 0 -- -- 100
2019-08-29 17:00:00 17.9 18 Norte 24 Norte 0 -- -- 100
2019-08-29 16:00:00 17.9 15 Norte 20 Norte 0 -- -- 100
2019-08-29 15:00:00 17.5 14 Norte 22 Norte 0 -- -- 100
2019-08-29 14:00:00 17.5 13 Norte 17 Norte 0 -- -- 100
2019-08-29 13:00:00 17.3 12 Norte 15 Norte 0 -- -- 100
2019-08-29 12:00:00 17.1 8 Norte 10 Norte 0 -- -- 100
2019-08-29 11:00:00 16.8 8 Norte 11 Norte 0.2 -- -- 100
2019-08-29 10:00:00 16.5 6 Norte 9 Norte 0 -- -- 100
2019-08-29 09:00:00 16.1 4 Norte 6 Norte 0 -- -- 100
2019-08-29 08:00:00 15.9 0 Calma 5 Norte 0.2 -- -- 100
2019-08-29 07:00:00 15.9 5 Norte 9 Norte 0.4 -- -- 100
2019-08-29 06:00:00 15.9 7 Norte 11 Norte 0 -- -- 100
2019-08-29 05:00:00 15.8 7 Norte 12 Norte 0.2 -- -- 100
2019-08-29 04:00:00 15.9 9 Norte 14 Noroeste 0.2 -- -- 100
2019-08-29 03:00:00 15.9 8 Norte 12 Noroeste 0 -- -- 100
2019-08-29 02:00:00 15.9 6 Norte 9 Noroeste 0.2 -- -- 100
2019-08-29 01:00:00 15.9 5 Norte 12 Noroeste 0 -- -- 100
2019-08-29 00:00:00 16 7 Noroeste 12 Noroeste 0 -- -- 100
2019-08-28 23:00:00 15.9 9 Noroeste 14 Norte 0 -- -- 100
2019-08-28 22:00:00 15.8 10 Norte 17 Norte 0.2 -- -- 100
2019-08-28 21:00:00 15.8 12 Norte 20 Norte 0.2 -- -- 100
2019-08-28 20:00:00 16 15 Norte 20 Norte 0.2 -- -- 100
2019-08-28 19:00:00 16.5 16 Norte 22 Norte 0 -- -- 100
2019-08-28 18:00:00 17 19 Norte 24 Norte 0 -- -- 98
2019-08-28 17:00:00 17.8 20 Norte 26 Norte 0 -- -- 96
2019-08-28 16:00:00 20 21 Norte 27 Norte 0 -- -- 88
2019-08-28 15:00:00 20.4 17 Norte 22 Norte 0 -- -- 88
2019-08-28 14:00:00 18.8 14 Norte 17 Norte 0 -- -- 96
2019-08-28 13:00:00 19 9 Norte 14 Norte 0 -- -- 98
2019-08-28 12:00:00 18.4 8 Norte 13 Norte 0 -- -- 100
2019-08-28 11:00:00 18.1 7 Norte 9 Norte 0 -- -- 100
2019-08-28 10:00:00 17.8 5 Norte 7 Norte 0 -- -- 100
2019-08-28 09:00:00 17.2 2 Sur 5 Sudeste 0 -- -- 100
2019-08-28 08:00:00 16.8 2 Norte 3 Norte 0 -- -- 100
2019-08-28 07:00:00 16.7 2 Norte 4 Norte 0 -- -- 100
2019-08-28 06:00:00 16.9 4 Sur 6 Sur 0 -- -- 100
2019-08-28 05:00:00 16.9 5 Sur 6 Sur 0 -- -- 100
2019-08-28 04:00:00 17.1 3 Sur 8 Sudoeste 0 -- -- 100
2019-08-28 03:00:00 17.1 3 Sur 9 Sur 0 -- -- 100
2019-08-28 02:00:00 17 0 Calma 9 Sur 0 -- -- 100
2019-08-28 01:00:00 17.3 6 Sur 9 Sur 0 -- -- 100
2019-08-28 00:00:00 17.5 3 Sur 8 Sur 0 -- -- 100
2019-08-27 23:00:00 17.5 5 Sur 8 Sudoeste 0 -- -- 100
2019-08-27 22:00:00 17.5 2 Norte 12 Norte 0 -- -- 100
2019-08-27 21:00:00 17.7 10 Norte 17 Norte 0 -- -- 100
2019-08-27 20:00:00 18.3 11 Norte 15 Norte 0 -- -- 98
2019-08-27 19:00:00 18.8 11 Norte 21 Norte 0 -- -- 97
2019-08-27 18:00:00 18.4 12 Norte 19 Norte 0 -- -- 99
2019-08-27 17:00:00 18.7 14 Norte 21 Norte 0 -- -- 98
2019-08-27 16:00:00 19.6 14 Norte 17 Norte 0 -- -- 96
2019-08-27 15:00:00 19.4 11 Norte 15 Norte 0 -- -- 96
2019-08-27 14:00:00 18.2 10 Norte 18 Norte 0 -- -- 99
2019-08-27 13:00:00 19.5 11 Norte 14 Norte 0 -- -- 95
2019-08-27 12:00:00 18.8 5 Norte 8 Norte 0 -- -- 99
2019-08-27 11:00:00 17.4 3 Sur 5 Sur 0 -- -- 100
2019-08-27 10:00:00 16.8 5 Sur 6 Sur 0 -- -- 100
2019-08-27 09:00:00 16.2 2 Sudoeste 5 Sur 0 -- -- 100
2019-08-27 08:00:00 16 0 Calma 4 Sur 0 -- -- 100
2019-08-27 07:00:00 16 0 Calma 4 Sur 0 -- -- 100
2019-08-27 06:00:00 16.1 2 Sur 9 Noroeste 0 -- -- 100
2019-08-27 05:00:00 16.2 3 Noroeste 12 Norte 0.6 -- -- 100
2019-08-27 04:00:00 16.4 10 Norte 19 Norte 0.8 -- -- 100
2019-08-27 03:00:00 16.7 14 Norte 20 Norte 0.4 -- -- 100
2019-08-27 02:00:00 17 11 Norte 18 Norte 0.2 -- -- 100
2019-08-27 01:00:00 17 12 Norte 14 Norte 0 -- -- 100
2019-08-27 00:00:00 17 6 Norte 9 Nordeste 0 -- -- 100
2019-08-26 23:00:00 17 3 Norte 11 Noroeste 0 -- -- 100
2019-08-26 22:00:00 17 8 Noroeste 19 Norte 1 -- -- 100
2019-08-26 21:00:00 17.1 16 Norte 25 Norte 0.8 -- -- 100
2019-08-26 20:00:00 17.6 14 Norte 19 Norte 0.6 -- -- 100
2019-08-26 19:00:00 17.8 15 Norte 25 Norte 0 -- -- 100
2019-08-26 18:00:00 18.1 19 Norte 27 Norte 0 -- -- 99
2019-08-26 17:00:00 18.7 7 Norte 17 Norte 0 -- -- 100
2019-08-26 16:00:00 18.1 13 Norte 27 Norte 0 -- -- 100
2019-08-26 15:00:00 18.8 17 Norte 25 Norte 0 -- -- 97
2019-08-26 14:00:00 20.2 12 Norte 16 Norte 0 -- -- 94
2019-08-26 13:00:00 20.7 8 Norte 15 Norte 0 -- -- 95
2019-08-26 12:00:00 18.8 4 Sudeste 11 Sudeste 0 -- -- 100
2019-08-26 11:00:00 17.8 5 Sur 8 Sur 0 -- -- 100
2019-08-26 10:00:00 17.4 5 Sur 10 Norte 0 -- -- 100
2019-08-26 09:00:00 16.9 6 Norte 9 Nordeste 0 -- -- 100
2019-08-26 08:00:00 16.8 8 Norte 12 Norte 0.2 -- -- 100
2019-08-26 07:00:00 16.9 3 Norte 6 Norte 0 -- -- 100
2019-08-26 06:00:00 16.9 0 Calma 5 Norte 0.2 -- -- 100
2019-08-26 05:00:00 16.9 5 Norte 11 Norte 0.4 -- -- 100
2019-08-26 04:00:00 16.9 7 Norte 12 Norte 0 -- -- 100
2019-08-26 03:00:00 16.7 5 Norte 10 Norte 0 -- -- 100
2019-08-26 02:00:00 16.9 0 Calma 4 Norte 0 -- -- 100
2019-08-26 01:00:00 17 2 Sur 8 Sur 0 -- -- 100
2019-08-26 00:00:00 17.1 3 Sudoeste 10 Norte 0 -- -- 100
2019-08-25 23:00:00 17 8 Norte 15 Norte 0 -- -- 100
2019-08-25 22:00:00 17.1 9 Norte 12 Norte 0 -- -- 100
2019-08-25 21:00:00 17.3 6 Norte 15 Norte 0 -- -- 100
2019-08-25 20:00:00 17.3 12 Norte 19 Norte 0 -- -- 100
2019-08-25 19:00:00 17.5 10 Norte 26 Norte 0 -- -- 100
2019-08-25 18:00:00 17.7 11 Norte 16 Norte 0 -- -- 98
2019-08-25 17:00:00 17.9 6 Norte 15 Noroeste 0 -- -- 97
2019-08-25 16:00:00 18.1 5 Oeste 17 Norte 0.2 -- -- 97
2019-08-25 15:00:00 18.3 6 Norte 14 Sur 0 -- -- 96
2019-08-25 14:00:00 18.2 7 Norte 20 Norte 0 -- -- 99
2019-08-25 13:00:00 16.9 6 Norte 14 Norte 0.2 -- -- 100
2019-08-25 12:00:00 16.4 6 Noroeste 16 Norte 0 -- -- 100
2019-08-25 11:00:00 16.3 10 Norte 24 Norte 0 -- -- 100
2019-08-25 10:00:00 15.6 19 Norte 26 Norte 0 -- -- 100
2019-08-25 09:00:00 15.3 13 Norte 21 Norte 0.2 -- -- 100
2019-08-25 08:00:00 15.2 11 Norte 30 Norte 0.6 -- -- 100
2019-08-25 07:00:00 15.1 10 Norte 17 Norte 0 -- -- 100
2019-08-25 06:00:00 15.2 13 Norte 25 Norte 0 -- -- 100
2019-08-25 05:00:00 15.4 12 Norte 18 Norte 0 -- -- 99
2019-08-25 04:00:00 15.6 11 Norte 17 Norte 0 -- -- 98
2019-08-25 03:00:00 15.6 10 Norte 15 Norte 0 -- -- 97
2019-08-25 02:00:00 15.5 8 Norte 15 Norte 0 -- -- 98
2019-08-25 01:00:00 15.8 10 Norte 15 Norte 0 -- -- 96
2019-08-25 00:00:00 16 11 Norte 17 Norte 0 -- -- 95
2019-08-24 23:00:00 16.2 8 Norte 11 Norte 0 -- -- 94
2019-08-24 22:00:00 16.3 8 Norte 14 Norte 0 -- -- 93
2019-08-24 21:00:00 16.5 11 Norte 18 Norte 0 -- -- 91
2019-08-24 20:00:00 16.9 15 Norte 26 Norte 0 -- -- 90
2019-08-24 19:00:00 18.4 20 Norte 27 Norte 0 -- -- 85
2019-08-24 18:00:00 19.5 21 Norte 30 Norte 0 -- -- 81
2019-08-24 17:00:00 20.3 23 Norte 29 Norte 0 -- -- 79
2019-08-24 16:00:00 20.1 19 Norte 27 Norte 0 -- -- 82
2019-08-24 15:00:00 19.7 21 Norte 28 Norte 0 -- -- 82
2019-08-24 14:00:00 20.6 17 Norte 24 Norte 0 -- -- 83
2019-08-24 13:00:00 20.5 16 Norte 19 Norte 0 -- -- 85
2019-08-24 12:00:00 20.1 7 Norte 13 Norte 0 -- -- 87
2019-08-24 11:00:00 17.8 0 Calma 9 Sur 0 -- -- 100
2019-08-24 10:00:00 15.3 6 Sur 9 Sur 0 -- -- 100
2019-08-24 09:00:00 14.3 6 Sur 12 Sur 0 -- -- 100
2019-08-24 08:00:00 14.3 4 Sur 9 Sur 0 -- -- 100
2019-08-24 07:00:00 14.4 3 Norte 8 Sur 0 -- -- 97
2019-08-24 06:00:00 14.7 7 Sur 8 Sur 0 -- -- 94
2019-08-24 05:00:00 15.2 5 Sur 12 Sur 0 -- -- 88
2019-08-24 04:00:00 16.3 0 Calma 4 Norte 0 -- -- 82
2019-08-24 03:00:00 17.5 0 Calma 6 Norte 0 -- -- 76
2019-08-24 02:00:00 18.8 4 Sur 5 Sur 0 -- -- 70
2019-08-24 01:00:00 19.4 5 Sur 8 Sur 0 -- -- 68
2019-08-24 00:00:00 19.8 0 Calma 8 Sur 0 -- -- 66
2019-08-23 23:00:00 20.3 4 Sur 8 Sur 0 -- -- 66
2019-08-23 22:00:00 21.1 0 Calma 5 Sur 0 -- -- 61
2019-08-23 21:00:00 22.6 4 Norte 13 Noroeste 0 -- -- 59
2019-08-23 20:00:00 24.2 8 Noroeste 18 Norte 0 -- -- 56
2019-08-23 19:00:00 26.4 13 Norte 20 Norte 0 -- -- 53
2019-08-23 18:00:00 25.9 18 Norte 30 Norte 0 -- -- 53
2019-08-23 17:00:00 30 18 Norte 23 Norte 0 -- -- 43
2019-08-23 16:00:00 31.6 15 Norte 21 Norte 0 -- -- 39
2019-08-23 15:00:00 32.3 10 Norte 15 Norte 0 -- -- 39
2019-08-23 14:00:00 31.1 9 Norte 13 Norte 0 -- -- 42
2019-08-23 13:00:00 29.6 11 Norte 13 Norte 0 -- -- 49
2019-08-23 12:00:00 28 3 Sur 15 Sur 0 -- -- 52
2019-08-23 11:00:00 24.1 11 Sur 20 Sur 0 -- -- 54
2019-08-23 10:00:00 21.1 13 Sur 21 Sur 0 -- -- 59
2019-08-23 09:00:00 18.3 13 Sur 19 Sur 0 -- -- 69
2019-08-23 08:00:00 16.3 11 Sur 15 Sudoeste 0 -- -- 87
2019-08-23 07:00:00 15.7 5 Sur 12 Sur 0 -- -- 98
2019-08-23 06:00:00 15.3 6 Sur 9 Sur 0 -- -- 100
2019-08-23 05:00:00 15.6 5 Sur 7 Sur 0 -- -- 100
2019-08-23 04:00:00 16.2 0 Calma 8 Sur 0 -- -- 100
2019-08-23 03:00:00 16 5 Sur 9 Sur 0 -- -- 100
2019-08-23 02:00:00 16.5 0 Calma 4 Sur 0 -- -- 100
2019-08-23 01:00:00 16.7 0 Calma 5 Sur 0 -- -- 99
2019-08-23 00:00:00 17.2 4 Sur 5 Sur 0 -- -- 98
2019-08-22 23:00:00 17.8 0 Calma -- -- 0 -- -- 97
2019-08-22 22:00:00 18.5 0 Calma 4 Norte 0 -- -- 94
2019-08-22 21:00:00 19.8 3 Norte 6 Noroeste 0 -- -- 90
2019-08-22 20:00:00 22.2 4 Noroeste 11 Norte 0 -- -- 81
2019-08-22 19:00:00 23.3 8 Norte 16 Norte 0 -- -- 78
2019-08-22 18:00:00 24.1 11 Norte 22 Norte 0 -- -- 75
2019-08-22 17:00:00 24.2 15 Norte 23 Norte 0 -- -- 73
2019-08-22 16:00:00 23.8 13 Norte 22 Norte 0 -- -- 72
2019-08-22 15:00:00 23.2 12 Norte 21 Norte 0 -- -- 73
2019-08-22 14:00:00 22.4 7 Norte 19 Norte 0 -- -- 76
2019-08-22 13:00:00 20.9 8 Nordeste 17 Nordeste 0 -- -- 82
2019-08-22 12:00:00 19.5 7 Norte 12 Norte 0 -- -- 88
2019-08-22 11:00:00 17.4 8 Sur 11 Sur 0 -- -- 94
2019-08-22 10:00:00 15.9 8 Sur 12 Sudeste 0 -- -- 99
2019-08-22 09:00:00 15.1 6 Sur 9 Sur 0 -- -- 100
2019-08-22 08:00:00 14.8 4 Sur 6 Sur 0 -- -- 100
2019-08-22 07:00:00 14.7 4 Sur 10 Sur 0 -- -- 100
2019-08-22 06:00:00 14.9 4 Sur 6 Sur 0 -- -- 100
2019-08-22 05:00:00 15 4 Sur 8 Sur 0 -- -- 100
2019-08-22 04:00:00 15 6 Sur 9 Sur 0 -- -- 100
2019-08-22 03:00:00 15.5 7 Sur 9 Sur 0 -- -- 100
2019-08-22 02:00:00 15.5 3 Sur 10 Norte 0 -- -- 100
2019-08-22 01:00:00 15.8 9 Norte 16 Norte 0 -- -- 100
2019-08-22 00:00:00 16.9 12 Norte 17 Norte 0 -- -- 98
2019-08-21 23:00:00 17.4 13 Norte 23 Norte 0 -- -- 96
2019-08-21 22:00:00 17.7 18 Norte 27 Norte 0 -- -- 96
2019-08-21 21:00:00 17.9 21 Norte 30 Norte 0 -- -- 94
2019-08-21 20:00:00 18.5 20 Norte 38 Norte 0 -- -- 93
2019-08-21 19:00:00 18.8 19 Norte 37 Norte 0 -- -- 92
2019-08-21 18:00:00 18.8 26 Norte 37 Norte 0 -- -- 90
2019-08-21 17:00:00 19.8 24 Norte 37 Norte 0 -- -- 85
2019-08-21 16:00:00 20 20 Norte 29 Norte 0 -- -- 83
2019-08-21 15:00:00 20.2 19 Norte 31 Norte 0 -- -- 82
2019-08-21 14:00:00 19.4 21 Norte 31 Norte 0 -- -- 82
2019-08-21 13:00:00 19.7 22 Norte 29 Norte -- -- -- 82
2019-08-21 12:00:00 18.8 11 Norte 17 Norte -- -- -- 80
2019-08-21 11:00:00 16.6 11 Norte 13 Norte 0 -- -- 86
2019-08-21 10:00:00 14.9 2 Sudeste 9 Sudeste 0 -- -- 94
2019-08-21 09:00:00 12.3 5 Sur 8 Sur 0 -- -- 100
2019-08-21 08:00:00 12.3 3 Sur 6 Sur 0 -- -- 100
2019-08-21 07:00:00 12.1 5 Sur 8 Sur 0 -- -- 100
2019-08-21 06:00:00 12.2 7 Sur 9 Sur 0 -- -- 100
2019-08-21 05:00:00 12.6 4 Sur 7 Sur 0 -- -- 99
2019-08-21 04:00:00 13.2 0 Calma 7 Nordeste 0 -- -- 96
2019-08-21 03:00:00 13.4 4 Nordeste 8 Nordeste 0 -- -- 96
2019-08-21 02:00:00 13.9 2 Sur 10 Norte 0 -- -- 95
2019-08-21 01:00:00 13.8 7 Norte 14 Norte 0 -- -- 96
2019-08-21 00:00:00 14.3 11 Norte 20 Norte 0 -- -- 96